createdAt,value
2022-12-20T00:01:12.207Z,9.80
2022-12-20T00:03:39.704Z,9.30
2022-12-20T00:06:07.165Z,9.75
2022-12-20T00:08:35.124Z,9.65
2022-12-20T00:11:03.477Z,9.60
2022-12-20T00:13:30.752Z,8.77
2022-12-20T00:16:11.552Z,9.73
2022-12-20T00:18:39.374Z,10.50
2022-12-20T00:21:07.752Z,9.52
2022-12-20T00:23:36.081Z,8.52
2022-12-20T00:26:10.961Z,9.07
2022-12-20T00:28:38.595Z,9.70
2022-12-20T00:31:06.279Z,9.82
2022-12-20T00:33:34.031Z,9.60
2022-12-20T00:36:01.298Z,8.77
2022-12-20T00:38:28.698Z,9.35
2022-12-20T00:41:02.066Z,8.48
2022-12-20T00:43:29.603Z,7.85
2022-12-20T00:45:56.890Z,7.85
2022-12-20T00:48:24.192Z,7.43
2022-12-20T00:50:51.635Z,7.18
2022-12-20T00:53:24.472Z,7.20
2022-12-20T00:55:53.602Z,7.15
2022-12-20T00:58:20.989Z,7.40
2022-12-20T01:00:54.020Z,6.93
2022-12-20T01:03:23.765Z,7.05
2022-12-20T01:05:58.357Z,6.28
2022-12-20T01:11:07.852Z,6.65
2022-12-20T01:13:36.207Z,7.18
2022-12-20T01:16:10.930Z,6.75
2022-12-20T01:18:38.223Z,7.20
2022-12-20T01:21:06.420Z,6.57
2022-12-20T01:23:33.818Z,6.85
2022-12-20T01:26:02.579Z,6.70
2022-12-20T01:28:30.094Z,6.40
2022-12-20T01:30:57.367Z,6.95
2022-12-20T01:33:24.778Z,6.93
2022-12-20T01:36:05.512Z,7.32
2022-12-20T01:38:33.082Z,7.55
2022-12-20T01:41:00.347Z,6.80
2022-12-20T01:43:46.138Z,7.30
2022-12-20T01:46:13.451Z,7.20
2022-12-20T01:48:41.591Z,6.82
2022-12-20T01:51:09.152Z,6.90
2022-12-20T01:53:36.564Z,7.10
2022-12-20T01:56:06.142Z,8.88
2022-12-20T01:58:34.390Z,8.20
2022-12-20T02:01:01.693Z,10.07
2022-12-20T02:03:30.568Z,9.20
2022-12-20T02:05:58.009Z,9.18
2022-12-20T02:08:25.278Z,9.65
2022-12-20T02:11:03.353Z,10.07
2022-12-20T02:13:33.690Z,10.05
2022-12-20T02:16:01.039Z,11.10
2022-12-20T02:18:39.839Z,11.73
2022-12-20T02:21:15.289Z,11.65
2022-12-20T02:24:13.983Z,11.75
2022-12-20T02:26:59.514Z,11.38
2022-12-20T02:29:29.754Z,11.85
2022-12-20T02:32:03.257Z,11.13
2022-12-20T02:34:32.825Z,13.17
2022-12-20T02:37:00.422Z,13.57
2022-12-20T02:39:29.577Z,13.73
2022-12-20T02:42:00.361Z,14.35
2022-12-20T02:44:48.225Z,15.18
2022-12-20T02:47:18.535Z,16.05
2022-12-20T02:49:46.370Z,15.90
2022-12-20T02:52:14.877Z,16.95
2022-12-20T02:54:42.288Z,17.23
2022-12-20T02:57:09.546Z,16.38
2022-12-20T02:59:46.600Z,16.83
2022-12-20T03:02:14.134Z,17.35
2022-12-20T03:04:41.933Z,18.80
2022-12-20T03:07:10.730Z,20.02
2022-12-20T03:09:42.226Z,19.33
2022-12-20T03:12:11.758Z,18.30
2022-12-20T03:14:39.476Z,18.67
2022-12-20T03:17:07.306Z,19.77
2022-12-20T03:19:34.782Z,19.17
2022-12-20T03:22:02.046Z,18.85
2022-12-20T03:24:29.300Z,19.45
2022-12-20T03:26:56.522Z,18.33
2022-12-20T03:29:23.793Z,18.58
2022-12-20T03:31:51.041Z,19.80
2022-12-20T03:34:18.285Z,18.58
2022-12-20T03:36:45.535Z,20.83
2022-12-20T03:39:12.859Z,19.88
2022-12-20T03:41:40.080Z,19.40
2022-12-20T03:44:07.564Z,19.58
2022-12-20T03:46:34.897Z,21.00
2022-12-20T03:49:02.255Z,21.58
2022-12-20T03:51:29.627Z,21.23
2022-12-20T03:53:56.862Z,23.92
2022-12-20T03:56:24.119Z,22.25
2022-12-20T03:58:51.376Z,21.45
2022-12-20T04:01:22.972Z,21.42
2022-12-20T04:03:51.192Z,22.40
2022-12-20T04:06:18.848Z,20.10
2022-12-20T04:08:46.266Z,21.67
2022-12-20T04:11:16.950Z,26.42
2022-12-20T04:13:51.425Z,23.55
2022-12-20T04:18:54.871Z,23.75
2022-12-20T04:21:27.299Z,22.83
2022-12-20T04:23:54.656Z,24.42
2022-12-20T04:26:22.354Z,22.85
2022-12-20T04:28:49.785Z,24.10
2022-12-20T04:31:23.291Z,23.40
2022-12-20T04:33:51.257Z,24.08
2022-12-20T04:36:18.602Z,23.48
2022-12-20T04:38:45.890Z,22.75
2022-12-20T04:41:22.458Z,23.77
2022-12-20T04:43:54.099Z,21.90
2022-12-20T04:46:21.814Z,24.90
2022-12-20T04:48:58.709Z,23.52
2022-12-20T04:51:27.019Z,22.63
2022-12-20T04:53:54.618Z,22.17
2022-12-20T04:56:23.188Z,25.42
2022-12-20T04:58:51.397Z,23.77
2022-12-20T05:01:19.728Z,22.85
2022-12-20T05:03:47.328Z,23.42
2022-12-20T05:06:14.820Z,22.20
2022-12-20T05:08:42.287Z,22.88
2022-12-20T05:11:09.593Z,20.60
2022-12-20T05:13:37.030Z,22.00
2022-12-20T05:16:04.706Z,24.02
2022-12-20T05:18:32.154Z,20.48
2022-12-20T05:21:18.935Z,18.60
2022-12-20T05:24:05.577Z,22.50
2022-12-20T05:26:34.208Z,21.75
2022-12-20T05:29:01.455Z,22.40
2022-12-20T05:31:29.047Z,21.17
2022-12-20T05:33:56.558Z,22.45
2022-12-20T05:36:23.829Z,23.88
2022-12-20T05:38:51.152Z,23.33
2022-12-20T05:41:18.439Z,20.75
2022-12-20T05:43:45.871Z,23.83
2022-12-20T05:46:13.239Z,22.55
2022-12-20T05:48:40.580Z,23.02
2022-12-20T05:51:07.958Z,23.27
2022-12-20T05:53:35.261Z,22.42
2022-12-20T05:56:02.569Z,24.30
2022-12-20T05:58:30.206Z,23.38
2022-12-20T06:00:57.503Z,23.42
2022-12-20T06:03:24.912Z,22.20
2022-12-20T06:05:52.327Z,22.05
2022-12-20T06:08:21.449Z,22.42
2022-12-20T06:10:48.940Z,22.88
2022-12-20T06:13:16.544Z,20.58
2022-12-20T06:15:43.827Z,22.33
2022-12-20T06:18:11.485Z,21.60
2022-12-20T06:20:39.463Z,22.08
2022-12-20T06:23:07.562Z,22.42
2022-12-20T06:25:34.903Z,21.75
2022-12-20T06:28:02.211Z,23.70
2022-12-20T06:30:33.774Z,20.90
2022-12-20T06:33:02.226Z,22.95
2022-12-20T06:35:29.866Z,22.83
2022-12-20T06:37:57.334Z,21.15
2022-12-20T06:40:24.891Z,21.67
2022-12-20T06:42:52.218Z,24.08
2022-12-20T06:45:19.535Z,23.55
2022-12-20T06:47:46.833Z,24.17
2022-12-20T06:50:14.108Z,22.80
2022-12-20T06:52:41.365Z,20.45
2022-12-20T06:55:08.886Z,22.90
2022-12-20T06:57:36.295Z,21.50
2022-12-20T07:00:03.824Z,20.92
2022-12-20T07:02:31.262Z,24.38
2022-12-20T07:04:58.543Z,23.45
2022-12-20T07:07:25.903Z,25.38
2022-12-20T07:09:53.147Z,23.55
2022-12-20T07:12:20.598Z,22.67
2022-12-20T07:14:47.920Z,22.80
2022-12-20T07:17:15.583Z,23.55
2022-12-20T07:19:50.236Z,23.33
2022-12-20T07:22:18.180Z,23.23
2022-12-20T07:24:47.733Z,22.00
2022-12-20T07:27:15.015Z,23.08
2022-12-20T07:29:42.362Z,23.33
2022-12-20T07:32:14.808Z,24.00
2022-12-20T07:34:42.167Z,23.50
2022-12-20T07:37:09.471Z,22.17
2022-12-20T07:39:36.741Z,23.30
2022-12-20T07:42:04.556Z,22.70
2022-12-20T07:44:31.950Z,21.58
2022-12-20T07:46:59.237Z,23.48
2022-12-20T07:49:26.504Z,21.88
2022-12-20T07:51:56.526Z,22.92
2022-12-20T07:54:26.871Z,22.13
2022-12-20T07:56:58.129Z,23.42
2022-12-20T07:59:27.969Z,19.77
2022-12-20T08:02:00.692Z,22.40
2022-12-20T08:04:31.828Z,22.27
2022-12-20T08:07:00.773Z,20.80
2022-12-20T08:09:30.100Z,19.60
2022-12-20T08:11:59.019Z,20.33
2022-12-20T08:14:26.345Z,20.58
2022-12-20T08:16:53.768Z,20.25
2022-12-20T08:19:23.307Z,21.63
2022-12-20T08:21:52.763Z,20.60
2022-12-20T08:24:20.066Z,21.25
2022-12-20T08:26:47.332Z,21.73
2022-12-20T08:29:14.609Z,19.63
2022-12-20T08:31:49.486Z,21.10
2022-12-20T08:34:17.520Z,18.88
2022-12-20T08:36:44.807Z,18.85
2022-12-20T08:39:12.137Z,19.20
2022-12-20T08:41:39.413Z,18.65
2022-12-20T08:44:07.097Z,19.40
2022-12-20T08:46:34.408Z,19.67
2022-12-20T08:49:01.737Z,18.92
2022-12-20T08:51:29.468Z,20.70
2022-12-20T08:53:57.044Z,18.30
2022-12-20T08:56:24.423Z,18.25
2022-12-20T08:58:51.727Z,19.00
2022-12-20T09:01:21.896Z,19.35
2022-12-20T09:03:49.667Z,19.33
2022-12-20T09:06:18.456Z,17.30
2022-12-20T09:08:45.928Z,18.13
2022-12-20T09:11:16.339Z,18.60
2022-12-20T09:13:44.945Z,18.42
2022-12-20T09:16:13.792Z,16.90
2022-12-20T09:18:41.477Z,17.50
2022-12-20T09:21:09.628Z,18.00
2022-12-20T09:23:37.339Z,17.75
2022-12-20T09:26:15.271Z,18.33
2022-12-20T09:28:42.971Z,19.00
2022-12-20T09:31:12.848Z,19.70
2022-12-20T09:33:40.364Z,18.88
2022-12-20T09:36:08.236Z,19.13
2022-12-20T09:38:35.623Z,19.73
2022-12-20T09:41:04.780Z,18.45
2022-12-20T09:43:33.227Z,21.05
2022-12-20T09:46:01.708Z,19.10
2022-12-20T09:48:31.384Z,18.60
2022-12-20T09:50:58.672Z,18.00
2022-12-20T09:53:38.975Z,17.23
2022-12-20T09:56:24.941Z,17.92
2022-12-20T09:59:02.829Z,17.80
2022-12-20T10:01:38.021Z,16.05
2022-12-20T10:04:12.122Z,19.20
2022-12-20T10:06:42.694Z,17.52
2022-12-20T10:09:30.278Z,16.33
2022-12-20T10:12:00.661Z,17.00
2022-12-20T10:14:27.896Z,16.50
2022-12-20T10:16:59.207Z,16.90
2022-12-20T10:19:41.567Z,15.00
2022-12-20T10:22:11.864Z,16.50
2022-12-20T10:24:39.725Z,15.48
2022-12-20T10:27:18.360Z,15.98
2022-12-20T10:29:46.541Z,17.80
2022-12-20T10:32:15.948Z,16.75
2022-12-20T10:35:03.485Z,16.98
2022-12-20T10:37:30.755Z,19.95
2022-12-20T10:40:02.000Z,17.25
2022-12-20T10:45:18.961Z,17.92
2022-12-20T10:47:47.216Z,18.73
2022-12-20T10:50:19.352Z,17.10
2022-12-20T10:53:02.741Z,18.33
2022-12-20T10:55:37.485Z,18.27
2022-12-20T10:58:14.520Z,16.40
2022-12-20T11:00:42.132Z,17.40
2022-12-20T11:03:12.808Z,19.48
2022-12-20T11:05:40.279Z,18.02
2022-12-20T11:08:35.999Z,17.50
2022-12-20T11:11:23.310Z,17.33
2022-12-20T11:13:51.214Z,18.65
2022-12-20T11:16:24.638Z,15.25
2022-12-20T11:18:57.628Z,15.73
2022-12-20T11:21:40.472Z,17.30
2022-12-20T11:24:33.067Z,17.15
2022-12-20T11:27:15.716Z,17.25
2022-12-20T11:29:49.570Z,16.95
2022-12-20T11:32:16.853Z,17.50
2022-12-20T11:35:10.551Z,16.33
2022-12-20T11:37:45.561Z,16.95
2022-12-20T11:40:31.229Z,16.58
2022-12-20T11:43:13.489Z,18.88
2022-12-20T11:45:52.781Z,18.42
2022-12-20T11:48:35.332Z,16.50
2022-12-20T11:51:15.454Z,18.67
2022-12-20T11:53:52.667Z,17.77
2022-12-20T11:56:19.966Z,17.45
2022-12-20T11:58:58.650Z,15.48
2022-12-20T12:01:30.142Z,15.18
2022-12-20T12:04:01.870Z,14.77
2022-12-20T12:07:08.560Z,15.10
2022-12-20T12:09:41.054Z,14.05
2022-12-20T12:12:15.377Z,15.90
2022-12-20T12:14:47.264Z,15.88
2022-12-20T12:17:18.492Z,15.18
2022-12-20T12:19:49.212Z,16.35
2022-12-20T12:22:23.501Z,15.77
2022-12-20T12:24:53.694Z,16.33
2022-12-20T12:27:24.955Z,15.90
2022-12-20T12:29:54.479Z,15.63
2022-12-20T12:32:22.131Z,16.50
2022-12-20T12:34:58.664Z,17.02
2022-12-20T12:37:26.060Z,16.95
2022-12-20T12:39:59.151Z,15.85
2022-12-20T12:43:16.368Z,17.00
2022-12-20T12:45:51.186Z,16.55
2022-12-20T12:48:18.652Z,18.02
2022-12-20T12:50:48.103Z,16.73
2022-12-20T12:53:20.749Z,16.00
2022-12-20T12:55:47.994Z,16.83
2022-12-20T12:58:18.378Z,16.13
2022-12-20T13:00:53.429Z,15.38
2022-12-20T13:03:39.095Z,18.13
2022-12-20T13:06:28.446Z,15.75
2022-12-20T13:09:05.003Z,16.90
2022-12-20T13:11:37.786Z,17.15
2022-12-20T13:14:20.242Z,15.90
2022-12-20T13:17:11.565Z,17.55
2022-12-20T13:19:37.033Z,16.08
2022-12-20T13:22:07.069Z,16.67
2022-12-20T13:24:42.845Z,16.58
2022-12-20T13:27:19.343Z,15.73
2022-12-20T13:30:00.904Z,16.13
2022-12-20T13:32:49.319Z,16.30
2022-12-20T13:35:25.821Z,17.40
2022-12-20T13:37:57.607Z,15.85
2022-12-20T13:40:38.900Z,15.85
2022-12-20T13:43:12.288Z,16.92
2022-12-20T13:45:40.230Z,17.63
2022-12-20T13:48:11.729Z,17.30
2022-12-20T13:50:41.071Z,16.35
2022-12-20T13:53:16.818Z,14.30
2022-12-20T13:55:45.348Z,13.73
2022-12-20T13:58:33.635Z,15.02
2022-12-20T14:01:15.041Z,15.13
2022-12-20T14:03:43.653Z,15.68
2022-12-20T14:06:11.720Z,16.73
2022-12-20T14:08:40.571Z,15.48
2022-12-20T14:11:18.744Z,16.77
2022-12-20T14:13:59.474Z,18.75
2022-12-20T14:16:27.984Z,16.05
2022-12-20T14:19:05.818Z,16.08
2022-12-20T14:21:36.619Z,16.75
2022-12-20T14:24:04.264Z,15.20
2022-12-20T14:26:33.955Z,15.93
2022-12-20T14:29:01.929Z,16.65
2022-12-20T14:31:42.261Z,15.45
2022-12-20T14:34:12.551Z,16.30
2022-12-20T14:36:44.030Z,16.02
2022-12-20T14:39:30.901Z,14.80
2022-12-20T14:41:58.228Z,16.08
2022-12-20T14:44:27.403Z,16.27
2022-12-20T14:46:56.492Z,16.90
2022-12-20T14:49:23.932Z,14.60
2022-12-20T14:51:51.902Z,14.95
2022-12-20T14:54:56.568Z,15.57
2022-12-20T14:57:23.602Z,15.68
2022-12-20T15:00:03.232Z,15.85
2022-12-20T15:02:51.930Z,15.75
2022-12-20T15:05:38.854Z,15.77
2022-12-20T15:08:18.623Z,16.83
2022-12-20T15:11:05.065Z,15.63
2022-12-20T15:13:34.242Z,16.55
2022-12-20T15:16:15.182Z,16.85
2022-12-20T15:18:42.685Z,15.30
2022-12-20T15:21:13.117Z,15.40
2022-12-20T15:23:46.921Z,15.45
2022-12-20T15:26:18.415Z,16.30
2022-12-20T15:28:45.790Z,15.40
2022-12-20T15:31:14.283Z,16.73
2022-12-20T15:33:42.474Z,17.63
2022-12-20T15:36:30.086Z,15.43
2022-12-20T15:39:14.568Z,15.57
2022-12-20T15:41:43.934Z,16.50
2022-12-20T15:44:18.557Z,16.98
2022-12-20T15:46:46.064Z,17.40
2022-12-20T15:49:17.218Z,16.40
2022-12-20T15:51:44.919Z,17.17
2022-12-20T15:54:27.837Z,15.40
2022-12-20T15:56:55.889Z,14.68
2022-12-20T16:02:22.598Z,17.05
2022-12-20T16:04:50.680Z,16.13
2022-12-20T16:07:18.254Z,17.27
2022-12-20T16:09:45.795Z,18.33
2022-12-20T16:12:24.512Z,17.92
2022-12-20T16:14:51.876Z,18.65
2022-12-20T16:17:19.374Z,18.70
2022-12-20T16:19:46.812Z,17.17
2022-12-20T16:22:16.753Z,17.17
2022-12-20T16:24:44.433Z,18.30
2022-12-20T16:27:11.860Z,17.80
2022-12-20T16:29:39.267Z,18.30
2022-12-20T16:32:16.812Z,18.05
2022-12-20T16:34:44.614Z,16.25
2022-12-20T16:37:12.199Z,17.70
2022-12-20T16:39:39.554Z,17.15
2022-12-20T16:42:17.323Z,17.70
2022-12-20T16:44:45.699Z,17.92
2022-12-20T16:47:14.251Z,17.40
2022-12-20T16:49:44.640Z,18.27
2022-12-20T16:52:18.390Z,16.65
2022-12-20T16:54:45.917Z,18.73
2022-12-20T16:57:13.323Z,17.45
2022-12-20T16:59:40.636Z,18.35
2022-12-20T17:02:34.561Z,17.63
2022-12-20T17:05:02.355Z,19.80
2022-12-20T17:07:29.721Z,18.75
2022-12-20T17:09:57.473Z,19.45
2022-12-20T17:12:24.928Z,18.27
2022-12-20T17:14:52.297Z,19.30
2022-12-20T17:17:19.619Z,20.55
2022-12-20T17:19:46.935Z,18.25
2022-12-20T17:22:23.760Z,20.52
2022-12-20T17:24:51.137Z,19.42
2022-12-20T17:27:19.111Z,19.23
2022-12-20T17:29:46.458Z,19.70
2022-12-20T17:32:21.166Z,19.92
2022-12-20T17:34:48.843Z,21.25
2022-12-20T17:37:17.587Z,20.80
2022-12-20T17:39:44.898Z,19.63
2022-12-20T17:42:15.665Z,19.30
2022-12-20T17:44:43.612Z,20.05
2022-12-20T17:47:11.921Z,20.35
2022-12-20T17:49:39.479Z,20.90
2022-12-20T17:52:06.797Z,21.33
2022-12-20T17:54:39.420Z,18.58
2022-12-20T17:57:07.737Z,20.70
2022-12-20T17:59:35.016Z,20.13
2022-12-20T18:02:02.465Z,19.65
2022-12-20T18:04:29.990Z,19.60
2022-12-20T18:06:57.487Z,18.75
2022-12-20T18:09:24.869Z,19.90
2022-12-20T18:11:52.172Z,18.48
2022-12-20T18:14:19.762Z,18.67
2022-12-20T18:16:47.660Z,19.42
2022-12-20T18:19:18.712Z,18.92
2022-12-20T18:21:46.229Z,20.00
2022-12-20T18:24:14.724Z,19.23
2022-12-20T18:26:42.296Z,19.38
2022-12-20T18:29:10.932Z,20.38
2022-12-20T18:31:38.381Z,20.35
2022-12-20T18:34:05.898Z,20.42
2022-12-20T18:36:34.958Z,20.40
2022-12-20T18:39:03.240Z,19.73
2022-12-20T18:41:32.115Z,20.60
2022-12-20T18:44:01.021Z,18.08
2022-12-20T18:46:28.496Z,20.80
2022-12-20T18:48:56.597Z,18.73
2022-12-20T18:51:26.173Z,18.40
2022-12-20T18:53:54.584Z,19.23
2022-12-20T18:56:25.028Z,19.27
2022-12-20T18:58:52.980Z,19.17
2022-12-20T19:01:21.837Z,19.08
2022-12-20T19:03:51.048Z,20.77
2022-12-20T19:06:18.932Z,19.55
2022-12-20T19:08:46.853Z,20.05
2022-12-20T19:11:15.337Z,20.45
2022-12-20T19:13:42.704Z,19.75
2022-12-20T19:16:13.120Z,21.23
2022-12-20T19:18:41.344Z,21.00
2022-12-20T19:21:13.264Z,18.55
2022-12-20T19:23:41.504Z,18.77
2022-12-20T19:26:10.374Z,18.08
2022-12-20T19:28:37.680Z,20.30
2022-12-20T19:31:08.101Z,20.73
2022-12-20T19:33:39.405Z,21.17
2022-12-20T19:36:13.067Z,19.85
2022-12-20T19:38:44.708Z,20.05
2022-12-20T19:41:12.266Z,20.38
2022-12-20T19:43:39.683Z,20.10
2022-12-20T19:46:08.133Z,21.05
2022-12-20T19:48:35.768Z,20.35
2022-12-20T19:51:03.627Z,20.20
2022-12-20T19:53:31.208Z,21.33
2022-12-20T19:55:59.807Z,21.05
2022-12-20T19:58:27.267Z,19.38
2022-12-20T20:00:55.159Z,20.42
2022-12-20T20:03:22.692Z,21.00
2022-12-20T20:05:50.473Z,21.17
2022-12-20T20:08:17.831Z,20.23
2022-12-20T20:10:45.205Z,21.05
2022-12-20T20:13:12.884Z,21.15
2022-12-20T20:15:40.172Z,22.17
2022-12-20T20:18:07.705Z,23.25
2022-12-20T20:20:35.996Z,20.85
2022-12-20T20:23:03.286Z,23.77
2022-12-20T20:25:33.217Z,21.65
2022-12-20T20:28:00.525Z,22.60
2022-12-20T20:30:27.831Z,23.33
2022-12-20T20:32:55.238Z,21.95
2022-12-20T20:35:22.670Z,24.00
2022-12-20T20:37:49.983Z,24.27
2022-12-20T20:40:17.357Z,23.42
2022-12-20T20:42:44.609Z,25.05
2022-12-20T20:45:12.162Z,23.13
2022-12-20T20:47:39.443Z,23.17
2022-12-20T20:50:07.142Z,23.63
2022-12-20T20:52:34.493Z,25.02
2022-12-20T20:55:01.910Z,25.60
2022-12-20T20:57:30.568Z,24.10
2022-12-20T20:59:58.267Z,25.65
2022-12-20T21:02:25.726Z,22.77
2022-12-20T21:05:35.305Z,23.58
2022-12-20T21:07:40.520Z,23.05
2022-12-20T21:10:08.364Z,24.90
2022-12-20T21:12:35.881Z,27.75
2022-12-20T21:17:51.067Z,24.58
2022-12-20T21:20:23.799Z,25.92
2022-12-20T21:22:53.510Z,25.25
2022-12-20T21:25:20.868Z,26.60
2022-12-20T21:27:48.305Z,24.45
2022-12-20T21:30:15.812Z,24.63
2022-12-20T21:32:43.138Z,24.63
2022-12-20T21:35:11.782Z,23.33
2022-12-20T21:37:39.151Z,23.63
2022-12-20T21:40:06.812Z,28.77
2022-12-20T21:42:34.186Z,25.52
2022-12-20T21:45:01.609Z,24.40
2022-12-20T21:47:29.011Z,24.85
2022-12-20T21:49:57.490Z,22.52
2022-12-20T21:52:26.161Z,23.27
2022-12-20T21:54:53.485Z,24.73
2022-12-20T21:57:20.798Z,21.13
2022-12-20T21:59:48.143Z,24.30
2022-12-20T22:02:15.854Z,19.27
2022-12-20T22:04:43.371Z,20.20
2022-12-20T22:07:10.781Z,19.75
2022-12-20T22:09:38.101Z,22.17
2022-12-20T22:12:05.480Z,20.55
2022-12-20T22:14:32.841Z,20.55
2022-12-20T22:17:00.134Z,19.15
2022-12-20T22:19:27.489Z,18.77
2022-12-20T22:21:58.255Z,20.23
2022-12-20T22:24:26.201Z,18.33
2022-12-20T22:26:53.593Z,18.65
2022-12-20T22:29:20.987Z,20.23
2022-12-20T22:31:48.392Z,19.65
2022-12-20T22:34:15.779Z,20.50
2022-12-20T22:36:43.810Z,20.58
2022-12-20T22:39:11.221Z,19.65
2022-12-20T22:41:38.571Z,20.02
2022-12-20T22:44:05.915Z,19.27
2022-12-20T22:46:33.547Z,20.48
2022-12-20T22:49:01.700Z,20.38
2022-12-20T22:51:31.189Z,19.50
2022-12-20T22:53:59.194Z,19.90
2022-12-20T22:56:27.026Z,20.33
2022-12-20T22:58:54.459Z,19.05
2022-12-20T23:01:21.991Z,20.05
2022-12-20T23:03:49.757Z,19.45
2022-12-20T23:06:18.666Z,19.42
2022-12-20T23:08:46.027Z,19.92
2022-12-20T23:11:34.367Z,20.63
2022-12-20T23:14:20.613Z,18.77
2022-12-20T23:16:47.990Z,19.77
2022-12-20T23:19:15.459Z,18.33
2022-12-20T23:22:01.579Z,18.85
2022-12-20T23:24:28.974Z,19.73
2022-12-20T23:26:56.360Z,21.33
2022-12-20T23:29:23.724Z,19.52
2022-12-20T23:31:51.176Z,19.88
2022-12-20T23:34:18.581Z,18.88
2022-12-20T23:36:45.920Z,19.25
2022-12-20T23:39:13.296Z,19.60
2022-12-20T23:41:40.700Z,19.15
2022-12-20T23:44:08.319Z,18.83
2022-12-20T23:46:35.699Z,19.35
2022-12-20T23:49:03.073Z,19.20
2022-12-20T23:51:30.395Z,19.75
2022-12-20T23:53:57.731Z,19.00
2022-12-20T23:56:25.334Z,19.50
2022-12-20T23:58:56.148Z,18.70
